sensor_id;sensor_type;location;lat;lon;timestamp;P1;durP1;ratioP1;P2;durP2;ratioP2
44862;SDS011;30597;49.628;10.850;2022-12-28T00:01:42;3.97;;;3.23;;
44862;SDS011;30597;49.628;10.850;2022-12-28T00:04:08;5.03;;;4.10;;
44862;SDS011;30597;49.628;10.850;2022-12-28T00:06:37;4.23;;;3.83;;
44862;SDS011;30597;49.628;10.850;2022-12-28T00:09:02;3.90;;;3.50;;
44862;SDS011;30597;49.628;10.850;2022-12-28T00:11:28;4.10;;;3.40;;
44862;SDS011;30597;49.628;10.850;2022-12-28T00:13:54;4.27;;;3.60;;
44862;SDS011;30597;49.628;10.850;2022-12-28T00:16:28;4.47;;;4.07;;
44862;SDS011;30597;49.628;10.850;2022-12-28T00:18:55;4.20;;;3.80;;
44862;SDS011;30597;49.628;10.850;2022-12-28T00:21:23;5.43;;;3.37;;
44862;SDS011;30597;49.628;10.850;2022-12-28T00:23:52;4.83;;;3.70;;
44862;SDS011;30597;49.628;10.850;2022-12-28T00:26:19;4.03;;;3.63;;
44862;SDS011;30597;49.628;10.850;2022-12-28T00:28:45;4.03;;;3.63;;
44862;SDS011;30597;49.628;10.850;2022-12-28T00:31:11;3.40;;;2.80;;
44862;SDS011;30597;49.628;10.850;2022-12-28T00:33:38;3.40;;;3.10;;
44862;SDS011;30597;49.628;10.850;2022-12-28T00:36:04;4.00;;;3.60;;
44862;SDS011;30597;49.628;10.850;2022-12-28T00:38:30;3.67;;;3.37;;
44862;SDS011;30597;49.628;10.850;2022-12-28T00:40:56;3.30;;;3.00;;
44862;SDS011;30597;49.628;10.850;2022-12-28T00:43:22;4.80;;;4.30;;
44862;SDS011;30597;49.628;10.850;2022-12-28T00:45:48;4.13;;;3.47;;
44862;SDS011;30597;49.628;10.850;2022-12-28T00:48:14;4.40;;;3.63;;
44862;SDS011;30597;49.628;10.850;2022-12-28T00:50:40;3.50;;;3.20;;
44862;SDS011;30597;49.628;10.850;2022-12-28T00:53:07;4.23;;;3.93;;
44862;SDS011;30597;49.628;10.850;2022-12-28T00:55:33;3.30;;;3.00;;
44862;SDS011;30597;49.628;10.850;2022-12-28T00:57:59;3.50;;;3.20;;
44862;SDS011;30597;49.628;10.850;2022-12-28T01:00:26;3.70;;;3.40;;
44862;SDS011;30597;49.628;10.850;2022-12-28T01:02:52;3.70;;;3.07;;
44862;SDS011;30597;49.628;10.850;2022-12-28T01:05:18;3.73;;;3.40;;
44862;SDS011;30597;49.628;10.850;2022-12-28T01:07:44;4.23;;;3.00;;
44862;SDS011;30597;49.628;10.850;2022-12-28T01:10:10;2.90;;;2.60;;
44862;SDS011;30597;49.628;10.850;2022-12-28T01:12:35;3.03;;;2.73;;
44862;SDS011;30597;49.628;10.850;2022-12-28T01:15:05;3.37;;;3.07;;
44862;SDS011;30597;49.628;10.850;2022-12-28T01:17:32;4.03;;;3.67;;
44862;SDS011;30597;49.628;10.850;2022-12-28T01:19:58;3.73;;;3.30;;
44862;SDS011;30597;49.628;10.850;2022-12-28T01:22:24;3.70;;;3.27;;
44862;SDS011;30597;49.628;10.850;2022-12-28T01:24:50;2.97;;;2.67;;
44862;SDS011;30597;49.628;10.850;2022-12-28T01:27:16;3.40;;;3.10;;
44862;SDS011;30597;49.628;10.850;2022-12-28T01:29:42;4.07;;;3.10;;
44862;SDS011;30597;49.628;10.850;2022-12-28T01:32:07;3.20;;;2.90;;
44862;SDS011;30597;49.628;10.850;2022-12-28T01:34:33;3.50;;;3.20;;
44862;SDS011;30597;49.628;10.850;2022-12-28T01:36:58;2.97;;;2.77;;
44862;SDS011;30597;49.628;10.850;2022-12-28T01:39:24;3.80;;;2.97;;
44862;SDS011;30597;49.628;10.850;2022-12-28T01:41:49;3.67;;;3.37;;
44862;SDS011;30597;49.628;10.850;2022-12-28T01:49:25;3.60;;;3.27;;
44862;SDS011;30597;49.628;10.850;2022-12-28T01:51:59;3.27;;;2.97;;
44862;SDS011;30597;49.628;10.850;2022-12-28T01:54:37;3.03;;;2.83;;
44862;SDS011;30597;49.628;10.850;2022-12-28T01:57:13;2.77;;;2.57;;
44862;SDS011;30597;49.628;10.850;2022-12-28T01:59:41;3.10;;;2.80;;
44862;SDS011;30597;49.628;10.850;2022-12-28T02:02:11;3.87;;;3.57;;
44862;SDS011;30597;49.628;10.850;2022-12-28T02:04:38;2.73;;;2.47;;
44862;SDS011;30597;49.628;10.850;2022-12-28T02:07:04;3.33;;;3.03;;
44862;SDS011;30597;49.628;10.850;2022-12-28T02:09:35;3.10;;;2.80;;
44862;SDS011;30597;49.628;10.850;2022-12-28T02:12:04;2.90;;;2.70;;
44862;SDS011;30597;49.628;10.850;2022-12-28T02:14:31;2.90;;;2.70;;
44862;SDS011;30597;49.628;10.850;2022-12-28T02:16:57;3.17;;;2.87;;
44862;SDS011;30597;49.628;10.850;2022-12-28T02:19:26;3.20;;;2.80;;
44862;SDS011;30597;49.628;10.850;2022-12-28T02:25:21;5.20;;;2.47;;
44862;SDS011;30597;49.628;10.850;2022-12-28T02:31:01;2.93;;;2.20;;
44862;SDS011;30597;49.628;10.850;2022-12-28T02:33:38;2.60;;;2.40;;
44862;SDS011;30597;49.628;10.850;2022-12-28T02:36:15;2.57;;;2.33;;
44862;SDS011;30597;49.628;10.850;2022-12-28T02:38:47;3.43;;;2.70;;
44862;SDS011;30597;49.628;10.850;2022-12-28T02:41:19;2.60;;;2.40;;
44862;SDS011;30597;49.628;10.850;2022-12-28T02:43:47;2.90;;;2.70;;
44862;SDS011;30597;49.628;10.850;2022-12-28T02:46:26;3.20;;;2.90;;
44862;SDS011;30597;49.628;10.850;2022-12-28T02:49:19;2.83;;;2.53;;
44862;SDS011;30597;49.628;10.850;2022-12-28T02:52:22;3.07;;;2.33;;
44862;SDS011;30597;49.628;10.850;2022-12-28T02:58:04;2.53;;;2.33;;
44862;SDS011;30597;49.628;10.850;2022-12-28T03:00:58;2.97;;;2.67;;
44862;SDS011;30597;49.628;10.850;2022-12-28T03:03:55;2.90;;;2.70;;
44862;SDS011;30597;49.628;10.850;2022-12-28T03:06:36;2.50;;;2.30;;
44862;SDS011;30597;49.628;10.850;2022-12-28T03:09:45;3.27;;;2.97;;
44862;SDS011;30597;49.628;10.850;2022-12-28T03:12:25;3.03;;;2.73;;
44862;SDS011;30597;49.628;10.850;2022-12-28T03:14:57;4.83;;;2.47;;
44862;SDS011;30597;49.628;10.850;2022-12-28T03:17:28;2.50;;;2.30;;
44862;SDS011;30597;49.628;10.850;2022-12-28T03:20:22;3.20;;;2.70;;
44862;SDS011;30597;49.628;10.850;2022-12-28T03:23:10;2.53;;;2.33;;
44862;SDS011;30597;49.628;10.850;2022-12-28T03:25:57;2.40;;;2.20;;
44862;SDS011;30597;49.628;10.850;2022-12-28T03:28:45;2.63;;;2.13;;
44862;SDS011;30597;49.628;10.850;2022-12-28T03:31:32;2.83;;;2.60;;
44862;SDS011;30597;49.628;10.850;2022-12-28T03:33:59;2.50;;;2.30;;
44862;SDS011;30597;49.628;10.850;2022-12-28T03:36:35;3.27;;;2.80;;
44862;SDS011;30597;49.628;10.850;2022-12-28T03:39:40;2.40;;;2.20;;
44862;SDS011;30597;49.628;10.850;2022-12-28T03:42:16;2.70;;;2.47;;
44862;SDS011;30597;49.628;10.850;2022-12-28T03:45:17;2.73;;;2.53;;
44862;SDS011;30597;49.628;10.850;2022-12-28T03:47:43;2.80;;;2.40;;
44862;SDS011;30597;49.628;10.850;2022-12-28T03:50:12;2.77;;;2.57;;
44862;SDS011;30597;49.628;10.850;2022-12-28T03:52:38;2.10;;;1.90;;
44862;SDS011;30597;49.628;10.850;2022-12-28T03:55:04;2.03;;;1.90;;
44862;SDS011;30597;49.628;10.850;2022-12-28T03:57:30;2.47;;;2.27;;
44862;SDS011;30597;49.628;10.850;2022-12-28T03:59:56;2.80;;;2.37;;
44862;SDS011;30597;49.628;10.850;2022-12-28T04:02:22;2.43;;;2.10;;
44862;SDS011;30597;49.628;10.850;2022-12-28T04:04:47;2.10;;;1.90;;
44862;SDS011;30597;49.628;10.850;2022-12-28T04:07:13;2.40;;;2.20;;
44862;SDS011;30597;49.628;10.850;2022-12-28T04:09:38;4.50;;;2.20;;
44862;SDS011;30597;49.628;10.850;2022-12-28T04:12:04;2.93;;;2.00;;
44862;SDS011;30597;49.628;10.850;2022-12-28T04:14:29;2.50;;;2.30;;
44862;SDS011;30597;49.628;10.850;2022-12-28T04:16:55;2.70;;;2.50;;
44862;SDS011;30597;49.628;10.850;2022-12-28T04:19:20;2.90;;;2.10;;
44862;SDS011;30597;49.628;10.850;2022-12-28T04:21:46;2.00;;;1.90;;
44862;SDS011;30597;49.628;10.850;2022-12-28T04:24:12;2.27;;;2.07;;
44862;SDS011;30597;49.628;10.850;2022-12-28T04:26:37;2.40;;;2.20;;
44862;SDS011;30597;49.628;10.850;2022-12-28T04:29:03;2.30;;;2.10;;
44862;SDS011;30597;49.628;10.850;2022-12-28T04:31:28;2.53;;;2.33;;
44862;SDS011;30597;49.628;10.850;2022-12-28T04:33:57;1.80;;;1.60;;
44862;SDS011;30597;49.628;10.850;2022-12-28T04:36:23;2.70;;;2.10;;
44862;SDS011;30597;49.628;10.850;2022-12-28T04:38:49;2.10;;;1.90;;
44862;SDS011;30597;49.628;10.850;2022-12-28T04:41:15;1.93;;;1.80;;
44862;SDS011;30597;49.628;10.850;2022-12-28T04:43:40;2.10;;;1.90;;
44862;SDS011;30597;49.628;10.850;2022-12-28T04:46:08;2.10;;;1.80;;
44862;SDS011;30597;49.628;10.850;2022-12-28T04:48:35;1.90;;;1.80;;
44862;SDS011;30597;49.628;10.850;2022-12-28T04:51:05;2.00;;;1.87;;
44862;SDS011;30597;49.628;10.850;2022-12-28T04:53:34;2.37;;;2.17;;
44862;SDS011;30597;49.628;10.850;2022-12-28T04:56:02;2.37;;;2.17;;
44862;SDS011;30597;49.628;10.850;2022-12-28T04:58:28;2.10;;;1.90;;
44862;SDS011;30597;49.628;10.850;2022-12-28T05:01:00;2.03;;;1.80;;
44862;SDS011;30597;49.628;10.850;2022-12-28T05:03:29;1.90;;;1.73;;
44862;SDS011;30597;49.628;10.850;2022-12-28T05:05:58;2.47;;;1.97;;
44862;SDS011;30597;49.628;10.850;2022-12-28T05:08:25;2.33;;;2.13;;
44862;SDS011;30597;49.628;10.850;2022-12-28T05:10:50;2.53;;;2.33;;
44862;SDS011;30597;49.628;10.850;2022-12-28T05:13:16;2.17;;;1.80;;
44862;SDS011;30597;49.628;10.850;2022-12-28T05:15:41;2.70;;;2.40;;
44862;SDS011;30597;49.628;10.850;2022-12-28T05:18:07;2.30;;;2.00;;
44862;SDS011;30597;49.628;10.850;2022-12-28T05:20:32;1.77;;;1.67;;
44862;SDS011;30597;49.628;10.850;2022-12-28T05:22:58;2.70;;;2.10;;
44862;SDS011;30597;49.628;10.850;2022-12-28T05:25:23;2.87;;;2.10;;
44862;SDS011;30597;49.628;10.850;2022-12-28T05:27:49;2.03;;;1.67;;
44862;SDS011;30597;49.628;10.850;2022-12-28T05:30:14;2.63;;;2.43;;
44862;SDS011;30597;49.628;10.850;2022-12-28T05:32:40;10.30;;;2.43;;
44862;SDS011;30597;49.628;10.850;2022-12-28T05:35:05;1.70;;;1.60;;
44862;SDS011;30597;49.628;10.850;2022-12-28T05:37:31;2.07;;;1.87;;
44862;SDS011;30597;49.628;10.850;2022-12-28T05:39:57;2.03;;;1.70;;
44862;SDS011;30597;49.628;10.850;2022-12-28T05:42:22;2.40;;;2.20;;
44862;SDS011;30597;49.628;10.850;2022-12-28T05:44:48;2.27;;;2.00;;
44862;SDS011;30597;49.628;10.850;2022-12-28T05:47:13;2.33;;;2.00;;
44862;SDS011;30597;49.628;10.850;2022-12-28T05:49:39;1.73;;;1.63;;
44862;SDS011;30597;49.628;10.850;2022-12-28T05:52:04;2.50;;;2.30;;
44862;SDS011;30597;49.628;10.850;2022-12-28T05:54:30;2.90;;;2.00;;
44862;SDS011;30597;49.628;10.850;2022-12-28T05:56:55;1.80;;;1.70;;
44862;SDS011;30597;49.628;10.850;2022-12-28T05:59:21;2.17;;;1.97;;
44862;SDS011;30597;49.628;10.850;2022-12-28T06:01:46;3.37;;;1.83;;
44862;SDS011;30597;49.628;10.850;2022-12-28T06:04:13;2.30;;;2.10;;
44862;SDS011;30597;49.628;10.850;2022-12-28T06:06:40;2.20;;;2.00;;
44862;SDS011;30597;49.628;10.850;2022-12-28T06:09:07;2.00;;;1.80;;
44862;SDS011;30597;49.628;10.850;2022-12-28T06:11:32;2.30;;;2.10;;
44862;SDS011;30597;49.628;10.850;2022-12-28T06:13:58;2.40;;;2.20;;
44862;SDS011;30597;49.628;10.850;2022-12-28T06:16:25;1.77;;;1.67;;
44862;SDS011;30597;49.628;10.850;2022-12-28T06:18:53;2.40;;;1.87;;
44862;SDS011;30597;49.628;10.850;2022-12-28T06:21:19;2.00;;;1.80;;
44862;SDS011;30597;49.628;10.850;2022-12-28T06:23:55;1.97;;;1.87;;
44862;SDS011;30597;49.628;10.850;2022-12-28T06:26:22;2.10;;;1.90;;
44862;SDS011;30597;49.628;10.850;2022-12-28T06:28:48;1.73;;;1.63;;
44862;SDS011;30597;49.628;10.850;2022-12-28T06:31:15;1.93;;;1.83;;
44862;SDS011;30597;49.628;10.850;2022-12-28T06:33:42;1.40;;;1.30;;
44862;SDS011;30597;49.628;10.850;2022-12-28T06:36:12;1.47;;;1.37;;
44862;SDS011;30597;49.628;10.850;2022-12-28T06:38:42;1.50;;;1.40;;
44862;SDS011;30597;49.628;10.850;2022-12-28T06:41:08;2.00;;;1.80;;
44862;SDS011;30597;49.628;10.850;2022-12-28T06:43:36;2.47;;;2.27;;
44862;SDS011;30597;49.628;10.850;2022-12-28T06:46:03;2.17;;;1.70;;
44862;SDS011;30597;49.628;10.850;2022-12-28T06:48:30;2.27;;;2.07;;
44862;SDS011;30597;49.628;10.850;2022-12-28T06:50:57;1.60;;;1.50;;
44862;SDS011;30597;49.628;10.850;2022-12-28T06:53:24;2.23;;;2.03;;
44862;SDS011;30597;49.628;10.850;2022-12-28T06:55:58;1.90;;;1.70;;
44862;SDS011;30597;49.628;10.850;2022-12-28T06:58:31;2.50;;;2.30;;
44862;SDS011;30597;49.628;10.850;2022-12-28T07:00:57;1.90;;;1.80;;
44862;SDS011;30597;49.628;10.850;2022-12-28T07:03:30;1.77;;;1.60;;
44862;SDS011;30597;49.628;10.850;2022-12-28T07:05:58;1.97;;;1.70;;
44862;SDS011;30597;49.628;10.850;2022-12-28T07:08:25;2.23;;;2.03;;
44862;SDS011;30597;49.628;10.850;2022-12-28T07:10:51;2.20;;;1.80;;
44862;SDS011;30597;49.628;10.850;2022-12-28T07:13:16;3.80;;;2.10;;
44862;SDS011;30597;49.628;10.850;2022-12-28T07:15:42;4.83;;;2.30;;
44862;SDS011;30597;49.628;10.850;2022-12-28T07:18:07;6.80;;;3.13;;
44862;SDS011;30597;49.628;10.850;2022-12-28T07:20:33;5.83;;;3.53;;
44862;SDS011;30597;49.628;10.850;2022-12-28T07:22:58;11.83;;;5.00;;
44862;SDS011;30597;49.628;10.850;2022-12-28T07:25:24;9.30;;;4.50;;
44862;SDS011;30597;49.628;10.850;2022-12-28T07:27:49;8.13;;;3.93;;
44862;SDS011;30597;49.628;10.850;2022-12-28T07:30:15;7.57;;;3.80;;
44862;SDS011;30597;49.628;10.850;2022-12-28T07:32:41;11.43;;;4.00;;
44862;SDS011;30597;49.628;10.850;2022-12-28T07:35:06;7.53;;;4.77;;
44862;SDS011;30597;49.628;10.850;2022-12-28T07:37:32;3.70;;;3.40;;
44862;SDS011;30597;49.628;10.850;2022-12-28T07:39:57;4.23;;;3.50;;
44862;SDS011;30597;49.628;10.850;2022-12-28T07:42:23;6.77;;;4.40;;
44862;SDS011;30597;49.628;10.850;2022-12-28T07:44:48;12.00;;;4.57;;
44862;SDS011;30597;49.628;10.850;2022-12-28T07:47:14;4.20;;;3.17;;
44862;SDS011;30597;49.628;10.850;2022-12-28T07:49:40;6.00;;;3.90;;
44862;SDS011;30597;49.628;10.850;2022-12-28T07:52:05;5.27;;;3.40;;
44862;SDS011;30597;49.628;10.850;2022-12-28T07:54:31;4.93;;;3.73;;
44862;SDS011;30597;49.628;10.850;2022-12-28T07:56:57;4.00;;;3.50;;
44862;SDS011;30597;49.628;10.850;2022-12-28T07:59:22;6.23;;;3.47;;
44862;SDS011;30597;49.628;10.850;2022-12-28T08:01:48;7.07;;;3.70;;
44862;SDS011;30597;49.628;10.850;2022-12-28T08:04:15;5.03;;;3.60;;
44862;SDS011;30597;49.628;10.850;2022-12-28T08:06:42;5.67;;;4.00;;
44862;SDS011;30597;49.628;10.850;2022-12-28T08:09:09;3.87;;;3.47;;
44862;SDS011;30597;49.628;10.850;2022-12-28T08:11:37;6.80;;;4.13;;
44862;SDS011;30597;49.628;10.850;2022-12-28T08:14:05;3.50;;;3.17;;
44862;SDS011;30597;49.628;10.850;2022-12-28T08:16:32;5.90;;;3.53;;
44862;SDS011;30597;49.628;10.850;2022-12-28T08:19:00;5.17;;;3.47;;
44862;SDS011;30597;49.628;10.850;2022-12-28T08:21:27;3.83;;;3.50;;
44862;SDS011;30597;49.628;10.850;2022-12-28T08:23:55;3.40;;;3.10;;
44862;SDS011;30597;49.628;10.850;2022-12-28T08:26:22;3.53;;;3.20;;
44862;SDS011;30597;49.628;10.850;2022-12-28T08:28:49;3.80;;;3.37;;
44862;SDS011;30597;49.628;10.850;2022-12-28T08:31:17;4.47;;;3.40;;
44862;SDS011;30597;49.628;10.850;2022-12-28T08:33:45;4.50;;;3.23;;
44862;SDS011;30597;49.628;10.850;2022-12-28T08:36:11;3.57;;;3.10;;
44862;SDS011;30597;49.628;10.850;2022-12-28T08:38:37;3.70;;;3.07;;
44862;SDS011;30597;49.628;10.850;2022-12-28T08:41:05;3.00;;;2.70;;
44862;SDS011;30597;49.628;10.850;2022-12-28T08:43:33;3.20;;;2.90;;
44862;SDS011;30597;49.628;10.850;2022-12-28T08:46:03;3.50;;;3.17;;
44862;SDS011;30597;49.628;10.850;2022-12-28T08:48:31;3.70;;;3.40;;
44862;SDS011;30597;49.628;10.850;2022-12-28T08:51:01;3.70;;;3.37;;
44862;SDS011;30597;49.628;10.850;2022-12-28T08:53:28;3.60;;;2.83;;
44862;SDS011;30597;49.628;10.850;2022-12-28T08:55:54;3.33;;;3.03;;
44862;SDS011;30597;49.628;10.850;2022-12-28T08:58:20;3.17;;;2.80;;
44862;SDS011;30597;49.628;10.850;2022-12-28T09:00:45;2.50;;;2.30;;
44862;SDS011;30597;49.628;10.850;2022-12-28T09:03:11;2.37;;;2.23;;
44862;SDS011;30597;49.628;10.850;2022-12-28T09:05:39;3.57;;;2.90;;
44862;SDS011;30597;49.628;10.850;2022-12-28T09:08:05;2.73;;;2.53;;
44862;SDS011;30597;49.628;10.850;2022-12-28T09:10:31;2.87;;;2.67;;
44862;SDS011;30597;49.628;10.850;2022-12-28T09:12:56;3.20;;;2.90;;
44862;SDS011;30597;49.628;10.850;2022-12-28T09:15:22;3.90;;;2.70;;
44862;SDS011;30597;49.628;10.850;2022-12-28T09:17:48;2.47;;;2.17;;
44862;SDS011;30597;49.628;10.850;2022-12-28T09:20:14;3.07;;;2.33;;
44862;SDS011;30597;49.628;10.850;2022-12-28T09:22:39;2.57;;;2.37;;
44862;SDS011;30597;49.628;10.850;2022-12-28T09:25:05;2.50;;;2.30;;
44862;SDS011;30597;49.628;10.850;2022-12-28T09:27:31;2.60;;;2.30;;
44862;SDS011;30597;49.628;10.850;2022-12-28T09:29:56;2.80;;;2.53;;
44862;SDS011;30597;49.628;10.850;2022-12-28T09:32:22;2.33;;;2.13;;
44862;SDS011;30597;49.628;10.850;2022-12-28T09:34:47;3.47;;;2.47;;
44862;SDS011;30597;49.628;10.850;2022-12-28T09:37:13;2.77;;;2.37;;
44862;SDS011;30597;49.628;10.850;2022-12-28T09:39:38;2.93;;;2.63;;
44862;SDS011;30597;49.628;10.850;2022-12-28T09:42:13;3.67;;;2.60;;
44862;SDS011;30597;49.628;10.850;2022-12-28T09:52:52;2.90;;;2.60;;
44862;SDS011;30597;49.628;10.850;2022-12-28T09:55:27;3.13;;;2.83;;
44862;SDS011;30597;49.628;10.850;2022-12-28T09:57:54;2.70;;;2.50;;
44862;SDS011;30597;49.628;10.850;2022-12-28T10:00:23;2.97;;;2.50;;
44862;SDS011;30597;49.628;10.850;2022-12-28T10:02:51;4.10;;;2.40;;
44862;SDS011;30597;49.628;10.850;2022-12-28T10:05:28;2.80;;;2.50;;
44862;SDS011;30597;49.628;10.850;2022-12-28T10:07:53;2.80;;;2.60;;
44862;SDS011;30597;49.628;10.850;2022-12-28T10:10:22;2.80;;;2.57;;
44862;SDS011;30597;49.628;10.850;2022-12-28T10:12:48;2.67;;;2.47;;
44862;SDS011;30597;49.628;10.850;2022-12-28T10:15:15;3.10;;;2.80;;
44862;SDS011;30597;49.628;10.850;2022-12-28T10:17:42;2.37;;;2.17;;
44862;SDS011;30597;49.628;10.850;2022-12-28T10:20:16;2.80;;;2.60;;
44862;SDS011;30597;49.628;10.850;2022-12-28T10:22:43;2.30;;;2.10;;
44862;SDS011;30597;49.628;10.850;2022-12-28T10:25:18;2.70;;;2.50;;
44862;SDS011;30597;49.628;10.850;2022-12-28T10:27:46;2.17;;;1.93;;
44862;SDS011;30597;49.628;10.850;2022-12-28T10:30:18;2.50;;;2.30;;
44862;SDS011;30597;49.628;10.850;2022-12-28T10:32:55;2.40;;;2.20;;
44862;SDS011;30597;49.628;10.850;2022-12-28T10:35:26;3.00;;;2.60;;
44862;SDS011;30597;49.628;10.850;2022-12-28T10:41:32;3.00;;;2.37;;
44862;SDS011;30597;49.628;10.850;2022-12-28T10:43:40;2.60;;;1.90;;
44862;SDS011;30597;49.628;10.850;2022-12-28T10:46:16;2.87;;;2.17;;
44862;SDS011;30597;49.628;10.850;2022-12-28T10:48:48;2.30;;;2.10;;
44862;SDS011;30597;49.628;10.850;2022-12-28T10:51:19;2.47;;;2.13;;
44862;SDS011;30597;49.628;10.850;2022-12-28T10:57:04;2.00;;;1.80;;
44862;SDS011;30597;49.628;10.850;2022-12-28T10:59:23;2.47;;;2.27;;
44862;SDS011;30597;49.628;10.850;2022-12-28T11:01:51;2.17;;;1.90;;
44862;SDS011;30597;49.628;10.850;2022-12-28T11:04:18;2.70;;;2.50;;
44862;SDS011;30597;49.628;10.850;2022-12-28T11:06:53;2.30;;;2.10;;
44862;SDS011;30597;49.628;10.850;2022-12-28T11:09:30;2.47;;;2.23;;
44862;SDS011;30597;49.628;10.850;2022-12-28T11:12:15;2.47;;;2.10;;
44862;SDS011;30597;49.628;10.850;2022-12-28T11:14:48;2.37;;;2.03;;
44862;SDS011;30597;49.628;10.850;2022-12-28T11:19:47;2.30;;;1.90;;
44862;SDS011;30597;49.628;10.850;2022-12-28T11:22:19;1.90;;;1.80;;
44862;SDS011;30597;49.628;10.850;2022-12-28T11:24:48;2.10;;;1.90;;
44862;SDS011;30597;49.628;10.850;2022-12-28T11:27:16;2.20;;;2.00;;
44862;SDS011;30597;49.628;10.850;2022-12-28T11:29:44;3.00;;;2.33;;
44862;SDS011;30597;49.628;10.850;2022-12-28T11:32:24;2.17;;;2.00;;
44862;SDS011;30597;49.628;10.850;2022-12-28T11:34:55;2.47;;;2.27;;
44862;SDS011;30597;49.628;10.850;2022-12-28T11:37:22;2.90;;;2.70;;
44862;SDS011;30597;49.628;10.850;2022-12-28T11:39:48;3.13;;;2.40;;
44862;SDS011;30597;49.628;10.850;2022-12-28T11:43:00;2.90;;;2.53;;
44862;SDS011;30597;49.628;10.850;2022-12-28T11:45:02;3.10;;;1.67;;
44862;SDS011;30597;49.628;10.850;2022-12-28T11:47:30;2.10;;;2.00;;
44862;SDS011;30597;49.628;10.850;2022-12-28T11:53:02;2.70;;;2.50;;
44862;SDS011;30597;49.628;10.850;2022-12-28T11:55:43;2.50;;;1.60;;
44862;SDS011;30597;49.628;10.850;2022-12-28T12:00:55;2.50;;;2.30;;
44862;SDS011;30597;49.628;10.850;2022-12-28T12:06:20;2.97;;;2.40;;
44862;SDS011;30597;49.628;10.850;2022-12-28T12:11:49;2.50;;;2.30;;
44862;SDS011;30597;49.628;10.850;2022-12-28T12:14:26;2.20;;;2.00;;
44862;SDS011;30597;49.628;10.850;2022-12-28T12:16:57;2.03;;;1.80;;
44862;SDS011;30597;49.628;10.850;2022-12-28T12:19:28;3.10;;;2.40;;
44862;SDS011;30597;49.628;10.850;2022-12-28T12:22:01;3.27;;;2.10;;
44862;SDS011;30597;49.628;10.850;2022-12-28T12:24:35;2.40;;;2.13;;
44862;SDS011;30597;49.628;10.850;2022-12-28T12:27:30;2.93;;;2.57;;
44862;SDS011;30597;49.628;10.850;2022-12-28T12:30:15;2.30;;;2.10;;
44862;SDS011;30597;49.628;10.850;2022-12-28T12:32:55;3.10;;;2.47;;
44862;SDS011;30597;49.628;10.850;2022-12-28T12:35:26;2.50;;;2.10;;
44862;SDS011;30597;49.628;10.850;2022-12-28T12:40:52;3.20;;;2.50;;
44862;SDS011;30597;49.628;10.850;2022-12-28T12:52:03;2.63;;;2.37;;
44862;SDS011;30597;49.628;10.850;2022-12-28T12:54:59;3.03;;;2.40;;
44862;SDS011;30597;49.628;10.850;2022-12-28T12:57:49;2.57;;;2.37;;
44862;SDS011;30597;49.628;10.850;2022-12-28T13:00:18;2.53;;;2.20;;
44862;SDS011;30597;49.628;10.850;2022-12-28T13:05:20;3.40;;;2.67;;
44862;SDS011;30597;49.628;10.850;2022-12-28T13:07:48;3.33;;;2.23;;
44862;SDS011;30597;49.628;10.850;2022-12-28T13:10:24;3.83;;;2.80;;
44862;SDS011;30597;49.628;10.850;2022-12-28T13:12:55;3.70;;;3.23;;
44862;SDS011;30597;49.628;10.850;2022-12-28T13:15:22;3.17;;;2.87;;
44862;SDS011;30597;49.628;10.850;2022-12-28T13:17:58;3.67;;;2.83;;
44862;SDS011;30597;49.628;10.850;2022-12-28T13:20:30;3.87;;;3.20;;
44862;SDS011;30597;49.628;10.850;2022-12-28T13:22:57;4.10;;;3.33;;
44862;SDS011;30597;49.628;10.850;2022-12-28T13:27:52;4.90;;;3.30;;
44862;SDS011;30597;49.628;10.850;2022-12-28T13:30:20;5.97;;;3.70;;
44862;SDS011;30597;49.628;10.850;2022-12-28T13:32:48;3.77;;;3.47;;
44862;SDS011;30597;49.628;10.850;2022-12-28T13:35:17;3.60;;;3.30;;
44862;SDS011;30597;49.628;10.850;2022-12-28T13:40:37;5.53;;;4.93;;
44862;SDS011;30597;49.628;10.850;2022-12-28T13:45:42;5.13;;;4.70;;
44862;SDS011;30597;49.628;10.850;2022-12-28T13:48:08;5.20;;;4.50;;
44862;SDS011;30597;49.628;10.850;2022-12-28T13:50:35;6.47;;;4.90;;
44862;SDS011;30597;49.628;10.850;2022-12-28T13:53:06;5.50;;;4.90;;
44862;SDS011;30597;49.628;10.850;2022-12-28T13:55:42;4.80;;;4.40;;
44862;SDS011;30597;49.628;10.850;2022-12-28T13:58:24;5.10;;;4.70;;
44862;SDS011;30597;49.628;10.850;2022-12-28T14:00:55;5.87;;;5.27;;
44862;SDS011;30597;49.628;10.850;2022-12-28T14:03:24;7.00;;;5.03;;
44862;SDS011;30597;49.628;10.850;2022-12-28T14:05:51;5.10;;;4.60;;
44862;SDS011;30597;49.628;10.850;2022-12-28T14:08:20;5.27;;;4.53;;
44862;SDS011;30597;49.628;10.850;2022-12-28T14:10:46;5.97;;;5.33;;
44862;SDS011;30597;49.628;10.850;2022-12-28T14:13:13;10.53;;;5.17;;
44862;SDS011;30597;49.628;10.850;2022-12-28T14:15:41;7.80;;;6.13;;
44862;SDS011;30597;49.628;10.850;2022-12-28T14:18:07;6.03;;;5.50;;
44862;SDS011;30597;49.628;10.850;2022-12-28T14:20:44;6.00;;;5.40;;
44862;SDS011;30597;49.628;10.850;2022-12-28T14:25:47;7.07;;;5.00;;
44862;SDS011;30597;49.628;10.850;2022-12-28T14:28:55;6.80;;;5.40;;
44862;SDS011;30597;49.628;10.850;2022-12-28T14:31:07;6.17;;;5.13;;
44862;SDS011;30597;49.628;10.850;2022-12-28T14:33:35;5.90;;;5.30;;
44862;SDS011;30597;49.628;10.850;2022-12-28T14:36:16;5.60;;;5.07;;
44862;SDS011;30597;49.628;10.850;2022-12-28T14:38:45;6.60;;;6.00;;
44862;SDS011;30597;49.628;10.850;2022-12-28T14:41:20;5.53;;;4.90;;
44862;SDS011;30597;49.628;10.850;2022-12-28T14:43:57;6.67;;;5.60;;
44862;SDS011;30597;49.628;10.850;2022-12-28T14:46:35;6.97;;;5.20;;
44862;SDS011;30597;49.628;10.850;2022-12-28T14:51:56;5.37;;;4.87;;
44862;SDS011;30597;49.628;10.850;2022-12-28T14:54:31;5.87;;;5.37;;
44862;SDS011;30597;49.628;10.850;2022-12-28T14:56:59;6.27;;;5.60;;
44862;SDS011;30597;49.628;10.850;2022-12-28T14:59:28;5.10;;;4.70;;
44862;SDS011;30597;49.628;10.850;2022-12-28T15:01:55;6.03;;;5.10;;
44862;SDS011;30597;49.628;10.850;2022-12-28T15:07:03;7.60;;;5.73;;
44862;SDS011;30597;49.628;10.850;2022-12-28T15:09:30;6.93;;;4.80;;
44862;SDS011;30597;49.628;10.850;2022-12-28T15:14:37;4.70;;;4.27;;
44862;SDS011;30597;49.628;10.850;2022-12-28T15:17:03;5.53;;;5.03;;
44862;SDS011;30597;49.628;10.850;2022-12-28T15:19:29;5.40;;;4.90;;
44862;SDS011;30597;49.628;10.850;2022-12-28T15:21:54;5.60;;;4.70;;
44862;SDS011;30597;49.628;10.850;2022-12-28T15:24:20;5.40;;;4.90;;
44862;SDS011;30597;49.628;10.850;2022-12-28T15:26:45;5.60;;;4.97;;
44862;SDS011;30597;49.628;10.850;2022-12-28T15:29:11;5.63;;;5.10;;
44862;SDS011;30597;49.628;10.850;2022-12-28T15:31:36;4.90;;;4.40;;
44862;SDS011;30597;49.628;10.850;2022-12-28T15:34:02;5.27;;;4.73;;
44862;SDS011;30597;49.628;10.850;2022-12-28T15:36:27;4.30;;;3.90;;
44862;SDS011;30597;49.628;10.850;2022-12-28T15:38:54;4.83;;;4.33;;
44862;SDS011;30597;49.628;10.850;2022-12-28T15:41:20;6.30;;;4.67;;
44862;SDS011;30597;49.628;10.850;2022-12-28T15:44:05;6.67;;;4.60;;
44862;SDS011;30597;49.628;10.850;2022-12-28T15:46:31;4.63;;;4.20;;
44862;SDS011;30597;49.628;10.850;2022-12-28T15:48:57;5.23;;;4.67;;
44862;SDS011;30597;49.628;10.850;2022-12-28T15:51:22;5.43;;;4.73;;
44862;SDS011;30597;49.628;10.850;2022-12-28T15:53:48;5.60;;;4.87;;
44862;SDS011;30597;49.628;10.850;2022-12-28T15:56:27;7.13;;;5.53;;
44862;SDS011;30597;49.628;10.850;2022-12-28T15:58:55;4.80;;;4.13;;
44862;SDS011;30597;49.628;10.850;2022-12-28T16:01:22;6.37;;;5.13;;
44862;SDS011;30597;49.628;10.850;2022-12-28T16:03:49;6.77;;;5.17;;